لومه, توگو

12:14 AM GMT on اوت 31, 2014 (GMT +0000)
Tokoin | Change Station
CLOSE
Current Station
Airport
Location: Lome,
Elevation: 82 ft
Nearby Weather Stations

Elev 82 ft 6.17 °N, 1.25 °E | Updated 14 minutes ago

Scattered Clouds
ابرهای پراکنده
75 °F
Feels Like 75 °F
N
12
باد متغير باد from جنوب غربی

امروز
High -- | Low -- °F
--% Chance of Precip.
دیروز
High -- | Low -- °F
Precip. -- در
5:48 AM 6:02 PM
Waxing Crescent, 25% visible
فشار 29.92 در
ديد 6.2 مايل، ميل (در برابر كيلومتر
ابری ابرهای پراکنده 1000 ft
قطره شبنم 75 °F
رطوبت 100%
بارش باران 0.00 در
برف عمیق Not available.
مادون قرمز 0 out of 12
Pollen Not available.
تمیزی هوا Not available.
Flu Activity Not available.
METAR DXXX 310000Z 23010KT 9999 SCT010 24/24 Q1013

More Conditions Fewer Conditions

فشار 29.92 در
ديد 6.2 مايل، ميل (در برابر كيلومتر
ابری ابرهای پراکنده 1000 ft
قطره شبنم 75 °F
رطوبت 100%
بارش باران 0.00 در
برف عمیق Not available.
مادون قرمز 0 out of 12
Pollen Not available.
تمیزی هوا Not available.
Flu Activity Not available.
METAR DXXX 310000Z 23010KT 9999 SCT010 24/24 Q1013

More Conditions Fewer Conditions

10-Day Weather Forecast

Almanac

ستاره شناسی

Aug. 31, 2014 Rise Set
وقت حقیقی 5:48 AM GMT 6:02 PM GMT
تاریک و روشن اجتماعی 5:27 AM GMT 6:23 PM GMT
تاریک روشن دریایی 5:02 AM GMT 6:47 PM GMT
شفق و فلق نجومی 4:38 AM GMT 7:12 PM GMT
ماه 10:09 AM GMT 10:20 PM GMT
میزان روشنایی روز 12h 56m
طول روز
12h 14m
Tomorrow will be 0m 19s shorter.
Waxing Crescent, 25% of the Moon is Illuminated
Aug 30
Waxing Crescent
Sep 2
ربع اول
Sep 8
ماه کامل
Sep 15
ربع آخر
Sep 24
New

Yesterday's Extremes

Country Highs Country Lows

Community

WunderPhotos

Upload Photos

1,748,696 photos uploaded!

Nearby

تمیزی هوا

Not available.

عمق برف

Not available.

Earthquake Activity

شهر Distance Mag. Time & Date
No recent earthquake activity has been reported nearby.
Minimum magnitude displayed is 2.5.

Coastal Water Temperatures

منطقه درجه حرارت
No Stations Reporting

Nearby Weather Stations